Terminal Aerodrome Forecast
Issued by NWS Wichita, KS

Home | Current Version | Previous Version | Text Only | Print | Product List | Glossary On
Versions: 1 2 3 4 5 6 7 8 9 10 11 12 13 14 15 16 17 18 19 20 21 22 23 24 25 26 27 28 29
000
FTUS43 KICT 241137
TAFICT
TAF
KICT 241137Z 2412/2512 07013KT P6SM SCT009 OVC012
     FM241300 09014G20KT P6SM VCTS OVC020CB
     FM241700 17018G25KT P6SM BKN035
     FM250000 16015G23KT P6SM VCTS SCT035 BKN070CB
     FM250300 17014KT P6SM VCTS BKN015 OVC040CB
     FM250600 17013KT P6SM VCSH BKN015=

USA.gov is the U.S. government's official web portal to all federal, state and local government web resources and services.